createdAt,value
2023-03-08T00:06:15.490Z,249.07
2023-03-08T00:07:15.469Z,248.79
2023-03-08T00:08:15.487Z,249.10
2023-03-08T00:09:15.452Z,249.19
2023-03-08T00:10:15.435Z,249.26
2023-03-08T00:11:15.440Z,249.24
2023-03-08T00:12:15.401Z,249.61
2023-03-08T00:13:15.391Z,249.96
2023-03-08T00:14:15.366Z,249.73
2023-03-08T00:15:15.361Z,249.91
2023-03-08T00:16:15.374Z,249.32
2023-03-08T00:17:15.330Z,249.48
2023-03-08T00:18:15.298Z,249.48
2023-03-08T00:19:15.290Z,249.21
2023-03-08T00:20:15.272Z,249.12
2023-03-08T00:21:15.269Z,249.25
2023-03-08T00:22:15.244Z,249.11
2023-03-08T00:23:15.245Z,249.59
2023-03-08T00:24:15.217Z,249.45
2023-03-08T00:25:15.207Z,249.29
2023-03-08T00:26:15.184Z,249.63
2023-03-08T00:27:15.164Z,249.61
2023-03-08T00:28:15.156Z,249.57
2023-03-08T00:29:15.196Z,249.37
2023-03-08T00:30:15.130Z,249.39
2023-03-08T00:31:15.142Z,249.07
2023-03-08T00:32:15.110Z,249.14
2023-03-08T00:33:15.078Z,249.75
2023-03-08T00:34:15.058Z,249.62
2023-03-08T00:35:15.043Z,249.70
2023-03-08T00:36:15.031Z,249.71
2023-03-08T00:37:15.014Z,249.68
2023-03-08T00:38:14.997Z,249.50
2023-03-08T00:39:14.983Z,249.54
2023-03-08T00:40:14.972Z,249.43
2023-03-08T00:41:14.954Z,249.26
2023-03-08T00:42:14.935Z,249.45
2023-03-08T00:43:14.923Z,249.53
2023-03-08T00:45:14.893Z,249.58
2023-03-08T00:59:14.637Z,249.83
2023-03-08T01:00:14.616Z,248.80
2023-03-08T01:01:14.681Z,248.95
2023-03-08T01:02:14.578Z,249.69
2023-03-08T01:03:14.563Z,249.60
2023-03-08T01:04:14.570Z,249.43
2023-03-08T01:05:14.534Z,249.56
2023-03-08T01:06:14.513Z,249.21
2023-03-08T01:07:14.486Z,249.57
2023-03-08T01:08:14.476Z,249.81
2023-03-08T01:09:14.465Z,249.88
2023-03-08T01:10:14.445Z,249.93
2023-03-08T01:11:14.422Z,249.98
2023-03-08T01:12:14.412Z,250.08
2023-03-08T01:13:14.391Z,249.82
2023-03-08T01:14:14.374Z,249.97
2023-03-08T01:15:14.357Z,249.66
2023-03-08T01:16:14.348Z,249.28
2023-03-08T01:17:14.321Z,248.60
2023-03-08T01:18:14.317Z,249.33
2023-03-08T01:19:14.295Z,249.58
2023-03-08T01:20:14.283Z,249.73
2023-03-08T01:21:14.257Z,249.31
2023-03-08T01:22:14.235Z,249.19
2023-03-08T01:23:14.228Z,248.66
2023-03-08T01:24:14.205Z,249.20
2023-03-08T01:25:14.188Z,249.52
2023-03-08T01:26:14.169Z,248.99
2023-03-08T01:27:14.157Z,249.34
2023-03-08T01:28:14.129Z,248.81
2023-03-08T01:29:14.122Z,249.47
2023-03-08T01:30:14.100Z,249.43
2023-03-08T01:31:14.115Z,249.36
2023-03-08T01:32:14.109Z,249.14
2023-03-08T01:33:14.047Z,249.35
2023-03-08T01:34:14.022Z,249.38
2023-03-08T01:48:13.783Z,249.67
2023-03-08T01:49:13.766Z,249.51
2023-03-08T01:50:13.755Z,249.15
2023-03-08T01:51:13.741Z,249.22
2023-03-08T01:52:13.717Z,249.26
2023-03-08T01:53:13.688Z,249.49
2023-03-08T01:54:13.668Z,249.77
2023-03-08T01:55:13.672Z,249.28
2023-03-08T01:56:13.660Z,249.60
2023-03-08T01:57:13.628Z,249.90
2023-03-08T01:58:13.609Z,249.42
2023-03-08T01:59:13.600Z,248.77
2023-03-08T02:00:13.581Z,249.58
2023-03-08T02:01:13.623Z,249.38
2023-03-08T02:02:13.547Z,249.39
2023-03-08T02:03:13.529Z,249.28
2023-03-08T02:04:13.506Z,249.02
2023-03-08T02:05:13.488Z,250.00
2023-03-08T02:06:13.474Z,248.94
2023-03-08T02:07:13.453Z,249.27
2023-03-08T02:08:13.439Z,249.71
2023-03-08T02:09:13.412Z,249.57
2023-03-08T02:10:13.408Z,249.14
2023-03-08T02:11:13.375Z,249.05
2023-03-08T02:12:13.392Z,249.29
2023-03-08T02:13:13.355Z,249.15
2023-03-08T02:14:13.358Z,248.93
2023-03-08T02:15:13.333Z,248.67
2023-03-08T02:16:13.323Z,249.41
2023-03-08T02:17:13.333Z,249.47
2023-03-08T02:18:13.304Z,249.93
2023-03-08T02:19:13.293Z,248.59
2023-03-08T02:20:13.289Z,248.92
2023-03-08T02:21:13.273Z,249.19
2023-03-08T02:22:13.261Z,248.77
2023-03-08T02:23:13.257Z,249.26
2023-03-08T02:24:13.233Z,249.21
2023-03-08T02:25:13.210Z,248.98
2023-03-08T02:26:13.208Z,249.29
2023-03-08T02:27:13.201Z,249.50
2023-03-08T02:28:13.177Z,249.25
2023-03-08T03:11:12.530Z,248.50
2023-03-08T03:12:12.499Z,248.70
2023-03-08T03:13:12.489Z,248.40
2023-03-08T03:14:12.472Z,249.34
2023-03-08T03:15:12.440Z,248.50
2023-03-08T03:16:12.492Z,248.03
2023-03-08T03:17:12.416Z,248.98
2023-03-08T03:18:12.391Z,248.93
2023-03-08T03:19:12.369Z,249.54
2023-03-08T03:20:12.352Z,248.79
2023-03-08T03:21:12.430Z,248.66
2023-03-08T03:22:12.314Z,248.80
2023-03-08T03:23:12.310Z,248.98
2023-03-08T03:24:12.285Z,249.88
2023-03-08T03:25:12.275Z,249.38
2023-03-08T03:26:12.263Z,248.89
2023-03-08T03:27:12.244Z,248.90
2023-03-08T03:28:12.231Z,248.65
2023-03-08T03:29:12.222Z,248.54
2023-03-08T03:30:12.193Z,249.26
2023-03-08T03:31:12.231Z,249.01
2023-03-08T03:32:12.240Z,249.09
2023-03-08T03:33:12.152Z,248.88
2023-03-08T03:34:12.129Z,249.14
2023-03-08T03:35:12.113Z,249.55
2023-03-08T03:36:12.092Z,248.66
2023-03-08T03:37:12.080Z,248.76
2023-03-08T03:38:12.089Z,249.32
2023-03-08T03:39:12.051Z,248.97
2023-03-08T03:40:12.025Z,249.15
2023-03-08T03:41:12.018Z,249.21
2023-03-08T03:42:11.987Z,248.28
2023-03-08T03:43:11.973Z,248.42
2023-03-08T03:44:11.965Z,248.71
2023-03-08T03:45:11.943Z,249.18
2023-03-08T03:46:11.951Z,249.60
2023-03-08T03:47:11.953Z,249.15
2023-03-08T03:48:11.909Z,249.28
2023-03-08T03:49:11.900Z,248.98
2023-03-08T03:50:11.879Z,248.98
2023-03-08T03:51:11.863Z,249.01
2023-03-08T03:52:11.872Z,248.86
2023-03-08T03:53:11.943Z,249.66
2023-03-08T03:54:11.835Z,249.43
2023-03-08T03:55:11.809Z,248.90
2023-03-08T03:56:11.792Z,248.99
2023-03-08T03:57:11.840Z,249.09
2023-03-08T03:58:11.757Z,249.20
2023-03-08T03:59:11.750Z,249.15
2023-03-08T04:00:11.725Z,249.15
2023-03-08T04:01:11.732Z,248.98
2023-03-08T04:02:11.698Z,249.19
2023-03-08T04:03:11.764Z,248.66
2023-03-08T04:04:11.683Z,248.98
2023-03-08T04:05:11.682Z,249.03
2023-03-08T04:06:11.650Z,249.10
2023-03-08T04:07:11.644Z,249.16
2023-03-08T04:08:11.627Z,249.30
2023-03-08T04:09:11.614Z,249.12
2023-03-08T04:10:11.600Z,249.19
2023-03-08T04:11:11.580Z,249.38
2023-03-08T04:12:11.567Z,249.29
2023-03-08T04:13:11.546Z,249.15
2023-03-08T04:14:11.538Z,249.52
2023-03-08T04:15:11.538Z,249.13
2023-03-08T04:16:11.643Z,249.35
2023-03-08T04:17:11.489Z,248.41
2023-03-08T04:18:11.472Z,248.43
2023-03-08T04:19:11.464Z,249.06
2023-03-08T04:20:11.427Z,249.18
2023-03-08T04:21:11.416Z,249.07
2023-03-08T04:22:11.406Z,248.98
2023-03-08T04:23:11.390Z,248.78
2023-03-08T04:24:11.381Z,247.97
2023-03-08T04:25:11.361Z,248.46
2023-03-08T04:26:11.333Z,248.79
2023-03-08T04:27:11.329Z,248.75
2023-03-08T04:28:11.319Z,249.05
2023-03-08T04:29:11.335Z,248.99
2023-03-08T04:30:11.289Z,248.38
2023-03-08T04:31:11.296Z,248.24
2023-03-08T04:32:11.282Z,248.78
2023-03-08T04:33:11.260Z,248.58
2023-03-08T04:34:11.250Z,248.44
2023-03-08T04:35:11.250Z,249.10
2023-03-08T04:36:11.237Z,248.48
2023-03-08T04:37:11.216Z,248.41
2023-03-08T04:38:11.202Z,249.00
2023-03-08T04:39:11.206Z,248.22
2023-03-08T04:40:11.182Z,248.90
2023-03-08T04:41:11.172Z,248.13
2023-03-08T04:42:11.154Z,248.59
2023-03-08T04:43:11.126Z,248.40
2023-03-08T04:44:11.108Z,247.81
2023-03-08T04:45:11.118Z,248.57
2023-03-08T04:46:11.132Z,248.53
2023-03-08T04:47:11.082Z,248.47
2023-03-08T04:48:11.070Z,248.24
2023-03-08T04:49:11.046Z,248.12
2023-03-08T04:50:11.038Z,248.10
2023-03-08T04:51:11.019Z,248.57
2023-03-08T04:52:11.021Z,248.87
2023-03-08T04:53:11.000Z,248.32
2023-03-08T04:54:10.994Z,248.57
2023-03-08T04:55:10.970Z,247.91
2023-03-08T04:56:10.952Z,248.98
2023-03-08T04:57:10.974Z,248.83
2023-03-08T04:58:10.926Z,248.47
2023-03-08T04:59:10.911Z,249.03
2023-03-08T05:00:10.897Z,248.14
2023-03-08T05:01:10.892Z,248.95
2023-03-08T05:02:10.892Z,249.06
2023-03-08T05:03:10.866Z,248.49
2023-03-08T05:04:10.847Z,248.40
2023-03-08T05:05:10.855Z,248.18
2023-03-08T05:06:10.809Z,248.24
2023-03-08T05:07:10.805Z,248.62
2023-03-08T05:08:10.792Z,248.65
2023-03-08T05:09:10.772Z,249.04
2023-03-08T05:10:10.774Z,247.94
2023-03-08T05:11:10.761Z,248.03
2023-03-08T05:12:10.752Z,248.31
2023-03-08T05:13:10.741Z,248.26
2023-03-08T05:14:10.729Z,248.35
2023-03-08T05:15:10.720Z,249.22
2023-03-08T05:16:10.731Z,248.38
2023-03-08T05:17:10.681Z,248.66
2023-03-08T05:18:10.676Z,249.37
2023-03-08T05:19:10.640Z,248.76
2023-03-08T05:20:10.624Z,248.46
2023-03-08T05:21:10.604Z,248.57
2023-03-08T05:22:10.618Z,248.21
2023-03-08T05:23:10.589Z,248.50
2023-03-08T05:24:10.565Z,248.63
2023-03-08T05:25:10.579Z,248.29
2023-03-08T05:26:10.597Z,248.26
2023-03-08T05:27:10.533Z,248.33
2023-03-08T05:28:10.509Z,248.14
2023-03-08T05:29:10.503Z,248.31
2023-03-08T05:30:10.485Z,249.02
2023-03-08T05:31:10.523Z,249.02
2023-03-08T05:32:10.463Z,248.66
2023-03-08T05:33:10.440Z,247.95
2023-03-08T05:34:10.421Z,248.04
2023-03-08T05:35:10.423Z,248.41
2023-03-08T05:36:10.420Z,248.11
2023-03-08T05:37:10.404Z,248.74
2023-03-08T05:38:10.380Z,248.23
2023-03-08T05:39:10.356Z,248.33
2023-03-08T05:40:10.349Z,248.54
2023-03-08T05:41:10.332Z,248.62
2023-03-08T05:42:10.323Z,248.74
2023-03-08T05:43:10.320Z,248.79
2023-03-08T05:44:10.318Z,248.68
2023-03-08T05:45:10.332Z,249.24
2023-03-08T05:46:10.336Z,248.29
2023-03-08T05:47:10.261Z,248.61
2023-03-08T05:48:10.240Z,248.30
2023-03-08T05:49:10.229Z,248.63
2023-03-08T05:50:10.247Z,248.02
2023-03-08T05:51:10.202Z,249.23
2023-03-08T05:52:10.179Z,248.57
2023-03-08T05:53:10.167Z,248.57
2023-03-08T05:54:10.154Z,248.36
2023-03-08T05:55:10.162Z,248.14
2023-03-08T05:56:10.122Z,248.96
2023-03-08T05:57:10.108Z,248.27
2023-03-08T05:58:10.093Z,248.20
2023-03-08T05:59:10.070Z,248.59
2023-03-08T06:00:10.059Z,248.68
2023-03-08T06:01:10.042Z,247.96
2023-03-08T06:02:10.108Z,248.24
2023-03-08T06:03:10.014Z,248.19
2023-03-08T06:04:09.978Z,247.89
2023-03-08T06:05:09.984Z,248.18
2023-03-08T06:06:09.954Z,249.12
2023-03-08T06:07:09.954Z,249.01
2023-03-08T06:08:09.912Z,248.43
2023-03-08T06:09:09.880Z,248.22
2023-03-08T06:10:09.863Z,248.81
2023-03-08T06:11:09.862Z,248.16
2023-03-08T06:12:09.850Z,247.87
2023-03-08T06:13:09.825Z,248.51
2023-03-08T06:14:11.642Z,248.01
2023-03-08T06:15:09.831Z,247.99
2023-03-08T06:16:09.789Z,246.85
2023-03-08T06:17:09.769Z,246.60
2023-03-08T06:18:09.746Z,246.69
2023-03-08T06:19:09.753Z,246.29
2023-03-08T06:20:09.718Z,247.59
2023-03-08T06:21:09.722Z,246.81
2023-03-08T06:22:09.691Z,246.47
2023-03-08T06:23:09.678Z,246.17
2023-03-08T06:24:09.657Z,246.58
2023-03-08T06:25:09.659Z,246.49
2023-03-08T06:26:09.637Z,246.15
2023-03-08T06:27:09.623Z,246.28
2023-03-08T06:28:09.619Z,246.41
2023-03-08T06:29:09.592Z,246.53
2023-03-08T06:30:09.577Z,243.30
2023-03-08T06:31:09.728Z,237.14
2023-03-08T06:32:09.635Z,232.59
2023-03-08T06:33:09.551Z,193.14
2023-03-08T06:34:09.515Z,203.87
2023-03-08T06:35:09.504Z,214.01
2023-03-08T06:36:09.482Z,218.47
2023-03-08T06:37:09.466Z,223.50
2023-03-08T06:38:09.428Z,222.97
2023-03-08T06:39:09.416Z,222.71
2023-03-08T06:40:09.403Z,220.56
2023-03-08T06:41:09.399Z,220.83
2023-03-08T06:42:09.371Z,223.42
2023-03-08T06:43:09.356Z,218.42
2023-03-08T06:44:09.350Z,212.33
2023-03-08T06:45:09.316Z,216.81
2023-03-08T06:46:09.363Z,204.25
2023-03-08T06:47:09.286Z,192.06
2023-03-08T06:48:09.279Z,163.46
2023-03-08T06:49:09.278Z,138.74
2023-03-08T06:50:09.272Z,131.79
2023-03-08T06:51:09.248Z,127.89
2023-03-08T06:52:09.222Z,134.41
2023-03-08T06:53:09.234Z,143.16
2023-03-08T06:54:09.248Z,158.16
2023-03-08T06:55:09.190Z,166.59
2023-03-08T06:56:09.153Z,173.49
2023-03-08T06:57:09.554Z,170.55
2023-03-08T06:58:09.116Z,180.66
2023-03-08T06:59:09.129Z,186.35
2023-03-08T07:00:09.081Z,192.46
2023-03-08T07:01:09.100Z,193.87
2023-03-08T07:02:09.057Z,200.06
2023-03-08T07:03:09.027Z,203.87
2023-03-08T07:04:09.089Z,206.89
2023-03-08T07:05:09.000Z,207.13
2023-03-08T07:06:09.009Z,208.37
2023-03-08T07:07:09.010Z,209.83
2023-03-08T07:08:08.932Z,216.53
2023-03-08T07:09:08.913Z,223.07
2023-03-08T07:10:08.901Z,227.08
2023-03-08T07:11:08.917Z,229.17
2023-03-08T07:12:08.965Z,231.49
2023-03-08T07:13:08.833Z,230.54
2023-03-08T07:14:08.813Z,227.97
2023-03-08T07:15:08.795Z,231.29
2023-03-08T07:16:08.847Z,232.62
2023-03-08T07:17:08.808Z,234.50
2023-03-08T07:18:12.382Z,234.56
2023-03-08T07:19:08.713Z,234.66
2023-03-08T07:20:08.707Z,234.81
2023-03-08T07:21:08.728Z,225.08
2023-03-08T07:22:08.716Z,226.79
2023-03-08T07:23:09.048Z,231.91
2023-03-08T07:24:08.641Z,214.45
2023-03-08T07:25:08.619Z,214.43
2023-03-08T07:26:08.596Z,228.06
2023-03-08T07:27:08.595Z,202.79
2023-03-08T07:28:08.551Z,207.12
2023-03-08T07:29:08.536Z,215.66
2023-03-08T07:30:08.519Z,214.09
2023-03-08T07:31:08.497Z,226.54
2023-03-08T07:32:08.727Z,219.71
2023-03-08T07:33:08.530Z,220.80
2023-03-08T07:34:08.462Z,205.17
2023-03-08T07:35:08.433Z,174.26
2023-03-08T07:36:08.520Z,200.77
2023-03-08T07:37:08.471Z,205.04
2023-03-08T07:38:08.438Z,198.69
2023-03-08T07:39:08.390Z,169.96
2023-03-08T07:40:08.339Z,180.86
2023-03-08T07:41:08.310Z,156.53
2023-03-08T07:42:08.318Z,110.88
2023-03-08T07:43:08.306Z,90.65
2023-03-08T07:44:08.270Z,79.69
2023-03-08T07:45:08.250Z,83.25
2023-03-08T07:46:08.271Z,75.70
2023-03-08T07:47:08.225Z,80.14
2023-03-08T07:48:08.222Z,104.16
2023-03-08T07:49:08.187Z,114.00
2023-03-08T07:50:08.186Z,92.88
2023-03-08T07:51:08.226Z,89.27
2023-03-08T07:52:08.132Z,54.56
2023-03-08T07:53:08.151Z,73.54
2023-03-08T07:54:08.095Z,93.90
2023-03-08T07:55:08.062Z,93.89
2023-03-08T07:56:08.031Z,93.93
2023-03-08T07:57:08.025Z,93.38
2023-03-08T07:58:07.999Z,96.92
2023-03-08T07:59:07.970Z,100.58
2023-03-08T08:00:07.973Z,93.57
2023-03-08T08:01:07.942Z,88.89
2023-03-08T08:02:07.942Z,87.16
2023-03-08T08:03:07.941Z,90.28
2023-03-08T08:04:08.025Z,91.37
2023-03-08T08:05:07.927Z,96.70
2023-03-08T08:06:07.864Z,59.52
2023-03-08T08:07:07.845Z,89.39
2023-03-08T08:08:07.863Z,90.75
2023-03-08T08:09:07.816Z,93.16
2023-03-08T09:06:06.786Z,151.38
2023-03-08T09:07:06.748Z,157.58
2023-03-08T09:08:06.749Z,160.86
2023-03-08T09:09:06.715Z,162.43
2023-03-08T09:10:07.001Z,169.13
2023-03-08T09:11:06.678Z,172.84
2023-03-08T09:12:06.650Z,183.42
2023-03-08T09:13:06.669Z,190.07
2023-03-08T09:14:06.630Z,191.43
2023-03-08T09:15:06.625Z,190.30
2023-03-08T09:16:06.619Z,188.43
2023-03-08T09:17:06.572Z,184.13
2023-03-08T09:18:06.555Z,185.13
2023-03-08T09:19:06.568Z,184.56
2023-03-08T09:20:06.546Z,188.88
2023-03-08T09:21:06.502Z,186.35
2023-03-08T09:22:06.485Z,179.27
2023-03-08T09:23:06.490Z,173.78
2023-03-08T09:24:06.482Z,175.02
2023-03-08T09:25:06.437Z,177.60
2023-03-08T09:26:06.438Z,178.57
2023-03-08T09:27:06.419Z,180.33
2023-03-08T09:28:06.390Z,180.43
2023-03-08T09:29:06.373Z,178.65
2023-03-08T09:30:06.359Z,174.40
2023-03-08T09:31:06.329Z,102.35
2023-03-08T09:32:06.467Z,91.61
2023-03-08T09:33:06.300Z,82.51
2023-03-08T09:34:06.294Z,98.39
2023-03-08T09:35:06.284Z,41.83
2023-03-08T09:36:06.233Z,22.52
2023-03-08T09:37:06.230Z,26.97
2023-03-08T09:38:06.211Z,15.73
2023-03-08T09:39:06.194Z,28.96
2023-03-08T09:40:06.202Z,4.60
2023-03-08T09:41:06.161Z,0.00
2023-03-08T09:42:06.146Z,0.00
2023-03-08T09:43:06.142Z,0.00
2023-03-08T09:44:06.123Z,28.38
2023-03-08T09:45:07.442Z,47.40
2023-03-08T09:46:06.126Z,22.63
2023-03-08T09:47:06.080Z,9.29
2023-03-08T09:48:06.145Z,0.00
2023-03-08T09:49:06.096Z,11.52
2023-03-08T09:50:06.011Z,14.65
2023-03-08T09:51:05.979Z,37.75
2023-03-08T09:52:05.974Z,45.25
2023-03-08T09:53:05.951Z,35.88
2023-03-08T09:54:05.942Z,25.42
2023-03-08T09:55:05.960Z,27.75
2023-03-08T09:56:05.914Z,51.67
2023-03-08T09:57:05.969Z,79.02
2023-03-08T09:58:05.956Z,97.21
2023-03-08T09:59:06.009Z,97.51
2023-03-08T10:00:05.866Z,51.36
2023-03-08T10:01:06.005Z,34.50
2023-03-08T10:02:05.836Z,26.65
2023-03-08T10:03:05.888Z,23.78
2023-03-08T10:04:05.870Z,24.75
2023-03-08T10:05:13.342Z,19.10
2023-03-08T10:06:06.815Z,7.90
2023-03-08T10:07:05.790Z,13.63
2023-03-08T10:08:05.810Z,24.07
2023-03-08T10:09:05.796Z,30.56
2023-03-08T10:10:05.775Z,75.47
2023-03-08T10:11:05.764Z,21.63
2023-03-08T10:12:11.895Z,32.02
2023-03-08T10:13:06.758Z,22.43
2023-03-08T10:14:05.787Z,34.99
2023-03-08T10:15:05.732Z,59.89
2023-03-08T10:16:05.737Z,98.11
2023-03-08T10:17:05.768Z,151.49
2023-03-08T10:18:05.717Z,159.75
2023-03-08T10:19:05.725Z,170.83
2023-03-08T10:20:05.698Z,174.51
2023-03-08T10:21:05.680Z,174.73
2023-03-08T10:22:05.660Z,174.94
2023-03-08T10:23:05.648Z,178.00
2023-03-08T10:24:05.644Z,184.63
2023-03-08T10:25:05.626Z,194.98
2023-03-08T10:26:05.619Z,209.56
2023-03-08T10:27:05.595Z,175.82
2023-03-08T10:28:05.587Z,181.24
2023-03-08T10:29:05.568Z,191.45
2023-03-08T10:30:05.587Z,205.21
2023-03-08T10:31:05.612Z,226.65
2023-03-08T10:32:05.583Z,232.75
2023-03-08T10:33:05.542Z,232.15
2023-03-08T10:34:05.529Z,234.06
2023-03-08T10:35:05.518Z,212.92
2023-03-08T10:36:05.557Z,206.48
2023-03-08T10:37:05.513Z,207.01
2023-03-08T10:38:05.452Z,197.58
2023-03-08T10:39:05.439Z,172.62
2023-03-08T10:40:05.471Z,194.88
2023-03-08T10:41:05.426Z,188.58
2023-03-08T10:42:05.445Z,191.08
2023-03-08T10:43:05.396Z,167.64
2023-03-08T10:44:05.408Z,163.72
2023-03-08T10:45:05.378Z,169.59
2023-03-08T10:46:05.398Z,169.07
2023-03-08T10:47:05.380Z,177.33
2023-03-08T10:48:05.338Z,201.88
2023-03-08T10:49:05.330Z,204.10
2023-03-08T10:50:05.338Z,181.62
2023-03-08T10:51:05.530Z,194.89
2023-03-08T10:52:05.298Z,186.34
2023-03-08T10:53:05.284Z,189.05
2023-03-08T10:54:05.272Z,183.76
2023-03-08T10:55:05.381Z,176.71
2023-03-08T10:56:05.280Z,185.15
2023-03-08T10:57:05.240Z,172.65
2023-03-08T10:58:05.224Z,154.27
2023-03-08T10:59:05.195Z,154.18
2023-03-08T11:00:05.173Z,134.03
2023-03-08T11:01:05.169Z,116.49
2023-03-08T11:02:05.196Z,123.10
2023-03-08T11:03:05.143Z,131.34
2023-03-08T11:04:05.117Z,102.76
2023-03-08T11:05:05.150Z,101.33
2023-03-08T11:06:05.096Z,102.33
2023-03-08T11:07:05.062Z,96.15
2023-03-08T11:08:05.083Z,88.87
2023-03-08T11:09:05.038Z,99.24
2023-03-08T11:10:05.030Z,97.99
2023-03-08T11:11:05.013Z,96.41
2023-03-08T11:12:04.987Z,91.14
2023-03-08T11:13:04.954Z,83.56
2023-03-08T11:14:04.938Z,90.71
2023-03-08T11:15:04.922Z,94.98
2023-03-08T11:16:04.974Z,87.59
2023-03-08T11:17:04.871Z,106.83
2023-03-08T11:18:04.841Z,99.57
2023-03-08T11:19:05.507Z,95.49
2023-03-08T11:20:04.828Z,105.33
2023-03-08T11:21:04.803Z,117.40
2023-03-08T11:22:04.779Z,110.34
2023-03-08T11:23:04.765Z,102.29
2023-03-08T11:24:04.759Z,88.13
2023-03-08T11:25:04.768Z,84.08
2023-03-08T11:26:04.725Z,84.47
2023-03-08T11:27:04.721Z,87.72
2023-03-08T11:28:04.689Z,88.26
2023-03-08T11:29:04.689Z,95.62
2023-03-08T11:30:04.641Z,120.57
2023-03-08T11:31:04.650Z,102.18
2023-03-08T11:32:04.604Z,116.93
2023-03-08T11:33:04.727Z,125.95
2023-03-08T11:34:04.576Z,114.91
2023-03-08T11:35:04.548Z,106.18
2023-03-08T11:36:04.552Z,105.69
2023-03-08T11:37:04.490Z,115.71
2023-03-08T11:38:04.520Z,93.72
2023-03-08T11:39:04.462Z,99.21
2023-03-08T11:40:04.452Z,105.76
2023-03-08T11:41:04.445Z,88.64
2023-03-08T11:42:04.471Z,86.37
2023-03-08T11:43:04.411Z,85.41
2023-03-08T11:44:04.398Z,83.63
2023-03-08T11:45:04.370Z,81.83
2023-03-08T11:46:04.363Z,91.06
2023-03-08T11:47:04.346Z,91.56
2023-03-08T11:48:04.386Z,83.98
2023-03-08T11:49:04.360Z,98.49
2023-03-08T11:50:04.304Z,109.29
2023-03-08T11:51:04.292Z,113.00
2023-03-08T11:52:04.279Z,114.00
2023-03-08T11:53:04.265Z,94.04
2023-03-08T11:54:04.246Z,123.62
2023-03-08T11:55:04.256Z,91.01
2023-03-08T11:56:04.226Z,88.00
2023-03-08T11:57:04.183Z,96.93
2023-03-08T11:58:04.181Z,96.56
2023-03-08T11:59:04.153Z,103.51
2023-03-08T12:00:04.146Z,104.05
2023-03-08T12:01:04.137Z,86.18
2023-03-08T12:02:04.132Z,83.85
2023-03-08T12:03:04.100Z,88.58
2023-03-08T12:04:04.492Z,95.27
2023-03-08T12:05:04.109Z,88.18
2023-03-08T12:06:04.155Z,71.46
2023-03-08T12:07:04.238Z,79.14
2023-03-08T12:08:04.099Z,72.91
2023-03-08T12:09:04.080Z,78.15
2023-03-08T12:10:04.031Z,82.71
2023-03-08T12:11:03.961Z,92.90
2023-03-08T12:12:03.928Z,72.63
2023-03-08T12:13:03.897Z,72.07
2023-03-08T12:14:03.901Z,77.99
2023-03-08T12:15:03.904Z,61.23
2023-03-08T12:16:03.897Z,66.31
2023-03-08T12:17:03.945Z,69.94
2023-03-08T12:18:03.799Z,66.47
2023-03-08T12:19:03.777Z,63.19
2023-03-08T12:20:03.772Z,63.19
2023-03-08T12:21:03.743Z,66.85
2023-03-08T12:22:03.720Z,61.72
2023-03-08T12:23:03.752Z,63.21
2023-03-08T12:24:04.060Z,78.21
2023-03-08T12:25:03.670Z,56.89
2023-03-08T12:26:03.650Z,52.81
2023-03-08T12:27:03.648Z,51.52
2023-03-08T12:28:03.683Z,57.76
2023-03-08T12:29:03.616Z,59.45
2023-03-08T12:30:03.614Z,55.18
2023-03-08T12:31:03.667Z,53.63
2023-03-08T12:32:03.608Z,60.06
2023-03-08T12:33:03.729Z,58.42
2023-03-08T12:34:03.548Z,50.20
2023-03-08T12:35:03.530Z,57.39
2023-03-08T12:36:03.677Z,58.54
2023-03-08T12:37:03.522Z,62.91
2023-03-08T12:38:03.556Z,54.55
2023-03-08T12:39:03.534Z,55.23
2023-03-08T12:40:03.470Z,51.84
2023-03-08T12:41:03.440Z,60.43
2023-03-08T12:42:03.444Z,53.76
2023-03-08T12:43:03.409Z,52.34
2023-03-08T12:44:03.385Z,66.20
2023-03-08T12:45:03.386Z,62.43
2023-03-08T12:46:03.426Z,52.38
2023-03-08T12:47:04.493Z,54.05
2023-03-08T12:48:03.456Z,63.54
2023-03-08T12:49:03.331Z,79.54
2023-03-08T12:50:03.321Z,94.97
2023-03-08T12:51:03.296Z,106.22
2023-03-08T12:52:03.287Z,111.44
2023-03-08T12:53:03.272Z,118.25
2023-03-08T12:54:03.253Z,124.99
2023-03-08T12:55:03.235Z,133.02
2023-03-08T12:56:03.225Z,138.17
2023-03-08T12:57:03.200Z,144.65
2023-03-08T12:58:03.211Z,142.52
2023-03-08T12:59:03.161Z,149.18
2023-03-08T13:00:03.134Z,156.35
2023-03-08T13:01:03.144Z,159.64
2023-03-08T13:02:03.110Z,159.04
2023-03-08T13:03:03.088Z,166.10
2023-03-08T13:04:03.134Z,168.72
2023-03-08T13:05:03.101Z,166.59
2023-03-08T13:06:03.037Z,170.88
2023-03-08T13:07:03.016Z,171.28
2023-03-08T13:08:02.980Z,178.55
2023-03-08T13:09:02.972Z,177.91
2023-03-08T13:10:02.943Z,184.75
2023-03-08T13:11:02.947Z,187.70
2023-03-08T13:12:02.921Z,188.74
2023-03-08T13:13:02.920Z,189.15
2023-03-08T13:14:02.887Z,185.43
2023-03-08T13:15:02.865Z,187.51
2023-03-08T13:16:02.820Z,193.98
2023-03-08T13:17:02.867Z,195.07
2023-03-08T13:18:02.784Z,194.52
2023-03-08T13:19:02.778Z,198.35
2023-03-08T13:20:02.824Z,198.50
2023-03-08T13:21:02.726Z,199.25
2023-03-08T13:22:02.732Z,198.83
2023-03-08T13:23:02.692Z,201.59
2023-03-08T13:24:02.678Z,202.99
2023-03-08T13:25:02.683Z,205.12
2023-03-08T13:26:02.686Z,205.00
2023-03-08T13:27:02.639Z,211.89
2023-03-08T13:28:02.620Z,211.92
2023-03-08T13:29:02.593Z,212.11
2023-03-08T13:30:02.604Z,212.49
2023-03-08T13:31:02.617Z,212.67
2023-03-08T13:32:02.532Z,216.16
2023-03-08T13:33:02.502Z,220.90
2023-03-08T13:34:02.473Z,222.42
2023-03-08T13:35:02.483Z,224.82
2023-03-08T13:36:02.476Z,225.91
2023-03-08T13:37:02.423Z,221.71
2023-03-08T13:38:02.409Z,221.52
2023-03-08T13:39:02.392Z,224.37
2023-03-08T13:40:02.351Z,226.80
2023-03-08T13:41:02.341Z,228.59
2023-03-08T13:42:02.312Z,233.54
2023-03-08T13:43:02.316Z,240.41
2023-03-08T13:44:02.263Z,244.87
2023-03-08T13:45:02.263Z,249.82
2023-03-08T13:46:02.256Z,250.43
2023-03-08T13:47:02.210Z,250.00
2023-03-08T13:48:02.180Z,250.06
2023-03-08T13:49:02.160Z,249.54
2023-03-08T13:50:02.120Z,249.96
2023-03-08T13:51:02.107Z,250.00
2023-03-08T13:52:02.084Z,249.90
2023-03-08T13:53:02.066Z,250.13
2023-03-08T13:54:02.024Z,251.14
2023-03-08T13:55:02.095Z,253.56
2023-03-08T13:56:01.982Z,257.03
2023-03-08T13:57:02.000Z,260.44
2023-03-08T13:58:01.970Z,252.11
2023-03-08T13:59:01.965Z,249.81
2023-03-08T14:00:01.937Z,249.29
2023-03-08T14:01:02.420Z,249.35
2023-03-08T14:02:01.840Z,247.24
2023-03-08T14:03:01.876Z,245.79
2023-03-08T14:04:01.831Z,244.87
2023-03-08T14:05:01.830Z,242.62
2023-03-08T14:06:01.861Z,239.47
2023-03-08T14:07:01.722Z,238.39
2023-03-08T14:08:01.705Z,238.26
2023-03-08T14:09:01.682Z,239.02
2023-03-08T14:10:01.651Z,240.42
2023-03-08T14:11:01.678Z,241.92
2023-03-08T14:12:01.626Z,241.44
2023-03-08T14:13:01.579Z,237.06
2023-03-08T14:14:01.570Z,234.29
2023-03-08T14:15:01.570Z,234.94
2023-03-08T14:16:01.629Z,233.95
2023-03-08T14:17:01.521Z,231.85
2023-03-08T14:18:01.490Z,231.47
2023-03-08T14:19:01.492Z,228.04
2023-03-08T14:20:01.536Z,227.95
2023-03-08T14:21:01.432Z,227.51
2023-03-08T14:22:01.409Z,227.10
2023-03-08T14:23:01.414Z,228.43
2023-03-08T14:24:01.381Z,225.92
2023-03-08T14:25:01.323Z,224.40
2023-03-08T14:26:01.269Z,217.71
2023-03-08T14:27:01.367Z,224.59
2023-03-08T14:28:01.430Z,234.15
2023-03-08T14:29:01.232Z,211.04
2023-03-08T14:30:01.229Z,180.32
2023-03-08T14:31:01.292Z,187.61
2023-03-08T14:32:01.346Z,133.72
2023-03-08T14:33:01.346Z,146.42
2023-03-08T14:34:01.167Z,117.97
2023-03-08T14:35:01.159Z,114.60
2023-03-08T14:36:01.340Z,124.32
2023-03-08T14:37:01.352Z,152.48
2023-03-08T14:38:01.274Z,159.44
2023-03-08T14:39:01.134Z,166.74
2023-03-08T14:40:01.049Z,171.20
2023-03-08T14:41:01.090Z,168.42
2023-03-08T14:42:01.074Z,176.69
2023-03-08T14:43:00.985Z,177.35
2023-03-08T14:44:00.986Z,180.27